createdAt,value
2022-08-30T00:04:06.557Z,3.63
2022-08-30T00:08:15.601Z,3.80
2022-08-30T00:12:24.654Z,4.27
2022-08-30T00:16:52.595Z,3.50
2022-08-30T00:21:01.621Z,3.97
2022-08-30T00:25:10.510Z,3.60
2022-08-30T00:29:19.199Z,3.53
2022-08-30T00:33:27.806Z,3.67
2022-08-30T00:37:36.470Z,3.33
2022-08-30T00:42:04.443Z,3.63
2022-08-30T00:46:13.103Z,3.40
2022-08-30T00:50:24.860Z,3.80
2022-08-30T00:54:36.381Z,3.43
2022-08-30T00:58:48.204Z,3.23
2022-08-30T01:02:57.181Z,3.50
2022-08-30T01:07:25.178Z,3.37
2022-08-30T01:11:37.882Z,3.80
2022-08-30T01:15:47.190Z,3.07
2022-08-30T01:20:01.953Z,2.90
2022-08-30T01:24:10.936Z,2.97
2022-08-30T01:28:22.951Z,2.90
2022-08-30T01:32:31.853Z,3.47
2022-08-30T01:36:44.855Z,3.57
2022-08-30T01:41:07.569Z,3.33
2022-08-30T01:45:16.343Z,3.30
2022-08-30T01:49:27.739Z,3.10
2022-08-30T01:53:35.118Z,3.50
2022-08-30T01:57:43.732Z,4.83
2022-08-30T02:01:52.636Z,3.50
2022-08-30T02:06:06.731Z,3.53
2022-08-30T02:10:15.584Z,3.23
2022-08-30T02:14:24.172Z,3.00
2022-08-30T02:18:34.697Z,3.20
2022-08-30T02:22:48.163Z,3.57
2022-08-30T02:26:54.414Z,3.60
2022-08-30T02:31:03.294Z,3.20
2022-08-30T02:35:11.935Z,3.00
2022-08-30T02:39:20.462Z,3.30
2022-08-30T02:43:29.349Z,3.60
2022-08-30T02:47:38.059Z,3.40
2022-08-30T02:51:46.698Z,3.80
2022-08-30T02:55:55.492Z,3.20
2022-08-30T03:00:08.836Z,3.60
2022-08-30T03:04:17.435Z,3.27
2022-08-30T03:08:26.332Z,3.67
2022-08-30T03:12:35.033Z,3.07
2022-08-30T03:16:43.696Z,3.70
2022-08-30T03:20:54.699Z,3.47
2022-08-30T03:25:03.146Z,3.37
2022-08-30T03:29:11.744Z,3.70
2022-08-30T03:33:21.972Z,3.47
2022-08-30T03:37:30.666Z,4.03
2022-08-30T03:41:39.974Z,3.33
2022-08-30T03:45:50.254Z,3.33
2022-08-30T03:49:58.962Z,3.27
2022-08-30T03:54:10.038Z,3.60
2022-08-30T03:58:19.167Z,3.33
2022-08-30T04:02:47.213Z,4.00
2022-08-30T04:06:56.357Z,3.23
2022-08-30T04:11:05.352Z,3.30
2022-08-30T04:15:14.099Z,4.27
2022-08-30T04:19:22.789Z,3.90
2022-08-30T04:23:31.660Z,3.57
2022-08-30T04:27:40.342Z,4.40
2022-08-30T04:31:49.198Z,3.77
2022-08-30T04:36:00.918Z,3.97
2022-08-30T04:40:11.015Z,4.33
2022-08-30T04:44:19.831Z,4.37
2022-08-30T04:48:29.062Z,4.33
2022-08-30T04:52:57.015Z,3.90
2022-08-30T04:57:07.763Z,4.17
2022-08-30T05:01:23.863Z,4.10
2022-08-30T05:05:41.796Z,4.50
2022-08-30T05:09:50.395Z,4.03
2022-08-30T05:13:59.286Z,4.13
2022-08-30T05:18:14.173Z,3.70
2022-08-30T05:22:21.083Z,5.53
2022-08-30T05:26:32.748Z,4.70
2022-08-30T05:30:41.552Z,4.30
2022-08-30T05:34:50.160Z,3.87
2022-08-30T05:39:00.660Z,3.63
2022-08-30T05:43:12.083Z,4.20
2022-08-30T05:47:22.743Z,4.10
2022-08-30T05:51:34.302Z,4.73
2022-08-30T05:55:43.357Z,4.30
2022-08-30T05:59:52.615Z,4.00
2022-08-30T06:04:04.249Z,4.20
2022-08-30T06:08:13.019Z,3.67
2022-08-30T06:12:21.683Z,3.93
2022-08-30T06:16:31.657Z,5.27
2022-08-30T06:20:44.644Z,4.37
2022-08-30T06:24:57.479Z,5.13
2022-08-30T06:29:04.270Z,4.17
2022-08-30T06:33:13.048Z,4.20
2022-08-30T06:37:29.170Z,4.20
2022-08-30T06:41:34.469Z,3.77
2022-08-30T06:45:43.169Z,4.87
2022-08-30T06:49:51.790Z,4.43
2022-08-30T06:54:01.440Z,4.73
2022-08-30T06:58:10.272Z,4.60
2022-08-30T07:02:22.904Z,4.93
2022-08-30T07:06:31.629Z,4.13
2022-08-30T07:10:46.889Z,3.70
2022-08-30T07:14:55.500Z,3.33
2022-08-30T07:19:05.566Z,3.90
2022-08-30T07:23:14.426Z,4.20
2022-08-30T07:27:23.338Z,4.23
2022-08-30T07:31:34.442Z,4.50
2022-08-30T07:35:43.719Z,4.50
2022-08-30T07:39:52.509Z,3.60
2022-08-30T07:44:02.847Z,3.63
2022-08-30T07:48:13.324Z,3.57
2022-08-30T07:52:41.315Z,4.20
2022-08-30T07:56:50.708Z,3.87
2022-08-30T08:00:59.764Z,3.63
2022-08-30T08:05:10.286Z,4.07
2022-08-30T08:09:20.019Z,3.43
2022-08-30T08:13:32.681Z,3.40
2022-08-30T08:17:38.879Z,3.00
2022-08-30T08:21:48.622Z,3.20
2022-08-30T08:25:57.686Z,3.40
2022-08-30T08:30:08.239Z,3.30
2022-08-30T08:34:18.645Z,4.00
2022-08-30T08:38:27.243Z,3.57
2022-08-30T08:43:04.636Z,3.40
2022-08-30T08:47:18.104Z,2.90
2022-08-30T08:51:47.837Z,3.00
2022-08-30T08:55:56.480Z,3.03
2022-08-30T09:00:10.878Z,3.47
2022-08-30T09:04:25.624Z,2.87
2022-08-30T09:08:35.863Z,4.00
2022-08-30T09:12:45.147Z,3.67
2022-08-30T09:17:11.336Z,2.70
2022-08-30T09:21:23.019Z,3.53
2022-08-30T09:25:32.889Z,2.90
2022-08-30T09:29:47.491Z,2.93
2022-08-30T09:34:06.279Z,3.17
2022-08-30T09:38:29.952Z,3.37
2022-08-30T09:42:39.147Z,2.80
2022-08-30T09:46:57.181Z,3.10
2022-08-30T09:51:14.410Z,3.13
2022-08-30T09:55:35.197Z,3.17
2022-08-30T10:00:08.296Z,2.83
2022-08-30T10:04:31.938Z,2.40
2022-08-30T10:08:58.757Z,2.50
2022-08-30T10:13:29.950Z,2.80
2022-08-30T10:18:04.724Z,2.50
2022-08-30T10:22:22.408Z,2.37
2022-08-30T10:26:57.130Z,2.63
2022-08-30T10:31:29.924Z,2.43
2022-08-30T10:35:41.622Z,2.70
2022-08-30T10:39:56.278Z,2.60
2022-08-30T10:44:20.229Z,2.47
2022-08-30T10:48:35.071Z,2.60
2022-08-30T10:52:47.429Z,2.53
2022-08-30T10:56:57.911Z,2.10
2022-08-30T11:01:28.457Z,2.67
2022-08-30T11:05:58.357Z,3.20
2022-08-30T11:10:30.262Z,2.80
2022-08-30T11:14:44.193Z,2.50
2022-08-30T11:18:56.445Z,2.70
2022-08-30T11:23:23.248Z,2.60
2022-08-30T11:27:45.386Z,2.70
2022-08-30T11:31:55.153Z,3.23
2022-08-30T11:36:04.134Z,3.13
2022-08-30T11:40:49.236Z,2.57
2022-08-30T11:45:28.359Z,2.63
2022-08-30T11:49:44.675Z,2.70
2022-08-30T11:54:18.948Z,2.37
2022-08-30T11:58:48.558Z,2.87
2022-08-30T12:03:00.117Z,2.93
2022-08-30T12:07:10.296Z,2.53
2022-08-30T12:11:22.761Z,3.47
2022-08-30T12:15:55.024Z,2.70
2022-08-30T12:20:27.054Z,3.00
2022-08-30T12:24:43.557Z,2.93
2022-08-30T12:29:13.932Z,2.60
2022-08-30T12:33:29.007Z,2.70
2022-08-30T12:37:38.817Z,3.12
2022-08-30T12:42:27.030Z,3.00
2022-08-30T12:46:36.343Z,3.00
2022-08-30T12:50:52.613Z,2.70
2022-08-30T12:55:22.541Z,2.80
2022-08-30T12:59:58.520Z,2.70
2022-08-30T13:04:21.295Z,2.90
2022-08-30T13:08:36.343Z,2.47
2022-08-30T13:13:00.236Z,2.97
2022-08-30T13:17:14.861Z,2.80
2022-08-30T13:21:26.472Z,3.13
2022-08-30T13:25:36.695Z,3.20
2022-08-30T13:29:45.333Z,2.53
2022-08-30T13:33:55.050Z,3.00
2022-08-30T13:38:04.235Z,3.23
2022-08-30T13:46:26.429Z,3.23
2022-08-30T13:50:35.094Z,2.90
2022-08-30T13:54:43.729Z,3.50
2022-08-30T13:58:52.354Z,2.73
2022-08-30T14:03:01.813Z,3.13
2022-08-30T14:07:14.101Z,2.90
2022-08-30T14:11:22.744Z,2.80
2022-08-30T14:15:31.344Z,2.97
2022-08-30T14:19:40.410Z,3.07
2022-08-30T14:23:49.053Z,3.03
2022-08-30T14:27:58.615Z,3.27
2022-08-30T14:32:07.403Z,2.70
2022-08-30T14:36:16.346Z,3.10
2022-08-30T14:40:25.019Z,3.00
2022-08-30T14:44:50.839Z,3.23
2022-08-30T14:48:44.736Z,2.83
2022-08-30T14:52:54.983Z,2.90
2022-08-30T14:57:03.659Z,2.57
2022-08-30T15:01:13.203Z,2.70
2022-08-30T15:05:22.906Z,2.83
2022-08-30T15:09:32.845Z,2.70
2022-08-30T15:13:44.882Z,2.63
2022-08-30T15:17:53.440Z,2.67
2022-08-30T15:22:05.024Z,2.90
2022-08-30T15:26:13.633Z,2.73
2022-08-30T15:30:22.447Z,3.00
2022-08-30T15:34:32.327Z,3.20
2022-08-30T15:38:42.458Z,2.90
2022-08-30T15:42:51.162Z,2.73
2022-08-30T15:47:00.259Z,2.97
2022-08-30T15:51:28.793Z,2.63
2022-08-30T15:55:39.299Z,3.10
2022-08-30T15:59:47.828Z,3.30
2022-08-30T16:03:56.839Z,2.83
2022-08-30T16:08:05.941Z,3.20
2022-08-30T16:12:23.478Z,2.60
2022-08-30T16:16:25.701Z,3.00
2022-08-30T16:20:34.336Z,2.70
2022-08-30T16:24:43.689Z,2.57
2022-08-30T16:28:54.692Z,2.70
2022-08-30T16:33:03.604Z,2.57
2022-08-30T16:37:12.267Z,2.77
2022-08-30T16:41:23.257Z,2.70
2022-08-30T16:45:34.476Z,2.90
2022-08-30T16:49:42.276Z,2.40
2022-08-30T16:53:51.190Z,2.67
2022-08-30T16:57:59.801Z,2.83
2022-08-30T17:02:08.638Z,2.70
2022-08-30T17:06:20.671Z,4.03
2022-08-30T17:10:31.503Z,2.60
2022-08-30T17:14:39.515Z,2.80
2022-08-30T17:18:49.308Z,3.13
2022-08-30T17:23:02.055Z,2.70
2022-08-30T17:27:11.294Z,2.47
2022-08-30T17:31:20.401Z,2.97
2022-08-30T17:35:29.351Z,2.90
2022-08-30T17:39:38.515Z,3.10
2022-08-30T17:43:47.644Z,2.30
2022-08-30T17:47:56.643Z,2.30
2022-08-30T17:52:06.979Z,2.60
2022-08-30T17:56:15.603Z,2.73
2022-08-30T18:00:24.328Z,2.60
2022-08-30T18:04:33.201Z,2.73
2022-08-30T18:08:42.358Z,2.50
2022-08-30T18:12:51.176Z,2.67
2022-08-30T18:17:01.602Z,2.60
2022-08-30T18:21:14.801Z,2.57
2022-08-30T18:25:23.424Z,2.80
2022-08-30T18:29:34.659Z,2.80
2022-08-30T18:33:43.645Z,2.50
2022-08-30T18:37:52.345Z,2.80
2022-08-30T18:42:00.945Z,3.07
2022-08-30T18:46:12.854Z,2.40
2022-08-30T18:50:23.201Z,3.10
2022-08-30T18:54:33.346Z,2.80
2022-08-30T18:58:44.452Z,2.60
2022-08-30T19:02:52.315Z,2.70
2022-08-30T19:07:01.015Z,2.47
2022-08-30T19:11:10.201Z,2.77
2022-08-30T19:15:19.658Z,2.33
2022-08-30T19:19:28.341Z,2.90
2022-08-30T19:23:37.379Z,2.30
2022-08-30T19:27:46.022Z,2.47
2022-08-30T19:31:54.614Z,2.73
2022-08-30T19:36:03.891Z,2.50
2022-08-30T19:40:16.192Z,2.67
2022-08-30T19:44:24.849Z,2.03
2022-08-30T19:48:35.789Z,3.00
2022-08-30T19:52:44.057Z,2.50
2022-08-30T19:56:53.344Z,2.43
2022-08-30T20:01:12.841Z,2.80
2022-08-30T20:05:12.723Z,2.77
2022-08-30T20:09:22.305Z,2.80
2022-08-30T20:13:34.055Z,2.80
2022-08-30T20:18:02.741Z,2.77
2022-08-30T20:21:53.320Z,2.70
2022-08-30T20:26:04.735Z,1.90
2022-08-30T20:30:14.716Z,2.70
2022-08-30T20:34:25.549Z,2.47
2022-08-30T20:38:34.536Z,2.80
2022-08-30T20:42:45.045Z,2.77
2022-08-30T20:46:53.663Z,2.57
2022-08-30T20:51:04.330Z,2.50
2022-08-30T20:55:14.486Z,2.50
2022-08-30T20:59:23.160Z,2.80
2022-08-30T21:03:32.829Z,2.73
2022-08-30T21:07:41.468Z,2.60
2022-08-30T21:11:50.268Z,2.20
2022-08-30T21:16:03.695Z,2.30
2022-08-30T21:20:11.940Z,2.83
2022-08-30T21:24:20.562Z,2.57
2022-08-30T21:28:29.185Z,2.60
2022-08-30T21:32:37.832Z,2.50
2022-08-30T21:36:46.819Z,2.73
2022-08-30T21:40:55.611Z,4.00
2022-08-30T21:45:04.538Z,2.47
2022-08-30T21:49:15.592Z,2.60
2022-08-30T21:53:24.270Z,2.37
2022-08-30T21:57:32.967Z,2.42
2022-08-30T22:01:43.198Z,2.60
2022-08-30T22:05:53.239Z,2.80
2022-08-30T22:10:01.839Z,2.50
2022-08-30T22:14:12.818Z,2.30
2022-08-30T22:18:21.435Z,2.70
2022-08-30T22:22:30.041Z,2.53
2022-08-30T22:26:39.854Z,2.80
2022-08-30T22:30:49.648Z,3.17
2022-08-30T22:34:58.484Z,2.50
2022-08-30T22:39:09.646Z,2.22
2022-08-30T22:43:19.452Z,2.40
2022-08-30T22:47:28.250Z,3.27
2022-08-30T22:51:37.181Z,3.10
2022-08-30T22:55:45.893Z,2.60
2022-08-30T22:59:55.075Z,2.53
2022-08-30T23:04:05.858Z,2.60
2022-08-30T23:08:14.468Z,2.87
2022-08-30T23:12:26.523Z,2.60
2022-08-30T23:16:36.085Z,2.80
2022-08-30T23:20:45.440Z,3.03
2022-08-30T23:25:15.993Z,2.80
2022-08-30T23:29:42.269Z,2.70
2022-08-30T23:34:08.613Z,2.80
2022-08-30T23:43:28.893Z,3.00
2022-08-30T23:47:55.985Z,2.70
2022-08-30T23:52:23.299Z,3.00
2022-08-30T23:56:49.869Z,2.43
